Belvidere, New Jersey
Current Conditions -  °F | °C
As of 3:14 PM on Wednesday 26 Nov 2014 (Local Time) from KABE Reporting Station
Light Snow Light Snow  
Wind Chill: 30°   Ceiling: 2700
Heat Index: 34°   Visibility: 1.7mi
Dew Point: 30°   Wind: 5mph
Humidity: 87%   Direction: 20°NNE
Pressure: 29.9"   Gusts: NA
Location:  40.83°N, 75.08°W
Report Text: KABE 262014Z 02004KT 1 3/4SM -SN BR OVC027 01/M01 A2990 RMK AO2 P0001 $
Loading
Personal Weather Stations






























Interactive Weather Map New forecast layout! Learn more

10-Day Weather Forecast

Advertisements
Track Severe Weather on mobile